createdAt,value
2018-04-11T00:02:24.026Z,99828.92
2018-04-11T00:04:51.607Z,99837.73
2018-04-11T00:07:19.222Z,99835.27
2018-04-11T00:09:46.723Z,99846.41
2018-04-11T00:12:14.321Z,99841.78
2018-04-11T00:14:41.909Z,99832.28
2018-04-11T00:17:09.498Z,99830.39
2018-04-11T00:19:37.066Z,99826.68
2018-04-11T00:22:04.704Z,99826.68
2018-04-11T00:24:32.269Z,99819.91
2018-04-11T00:26:59.837Z,99822.53
2018-04-11T00:29:27.400Z,99822.95
2018-04-11T00:31:55.011Z,99826.01
2018-04-11T00:34:22.573Z,99833.22
2018-04-11T00:36:50.137Z,99837.41
2018-04-11T00:39:17.704Z,99838.00
2018-04-11T00:41:45.250Z,99830.80
2018-04-11T00:44:12.813Z,99830.06
2018-04-11T00:46:40.382Z,99829.34
2018-04-11T00:49:07.945Z,99827.66
2018-04-11T00:51:35.532Z,99829.38
2018-04-11T00:54:03.112Z,99833.73
2018-04-11T00:56:30.666Z,99835.49
2018-04-11T00:58:58.217Z,99827.31
2018-04-11T01:01:25.759Z,99823.95
2018-04-11T01:03:53.296Z,99831.71
2018-04-11T01:06:20.879Z,99839.38
2018-04-11T01:08:48.409Z,99838.50
2018-04-11T01:11:15.980Z,99845.78
2018-04-11T01:13:43.545Z,99833.54
2018-04-11T01:16:11.101Z,99836.14
2018-04-11T01:18:39.168Z,99831.05
2018-04-11T01:21:06.737Z,99839.06
2018-04-11T01:23:34.295Z,99852.20
2018-04-11T01:26:01.853Z,99851.77
2018-04-11T01:28:29.415Z,99857.60
2018-04-11T01:30:56.973Z,99862.34
2018-04-11T01:33:24.562Z,99865.81
2018-04-11T01:35:52.105Z,99871.33
2018-04-11T01:38:19.664Z,99867.50
2018-04-11T01:40:47.235Z,99870.05
2018-04-11T01:43:14.818Z,99862.34
2018-04-11T01:45:42.422Z,99861.53
2018-04-11T01:48:10.001Z,99853.09
2018-04-11T01:50:37.561Z,99848.42
2018-04-11T01:53:05.110Z,99848.81
2018-04-11T01:55:32.674Z,99853.09
2018-04-11T01:58:00.240Z,99858.22
2018-04-11T02:00:27.795Z,99854.80
2018-04-11T02:02:55.356Z,99852.28
2018-04-11T02:05:22.890Z,99865.85
2018-04-11T02:07:50.480Z,99862.41
2018-04-11T02:10:18.048Z,99853.90
2018-04-11T02:12:45.605Z,99837.32
2018-04-11T02:15:13.175Z,99850.02
2018-04-11T02:17:40.821Z,99857.17
2018-04-11T02:20:08.386Z,99860.47
2018-04-11T02:22:35.978Z,99875.77
2018-04-11T02:25:03.540Z,99874.47
2018-04-11T02:27:31.130Z,99878.23
2018-04-11T02:29:58.690Z,99866.89
2018-04-11T02:32:26.242Z,99866.81
2018-04-11T02:34:53.774Z,99864.25
2018-04-11T02:37:21.340Z,99860.47
2018-04-11T02:39:48.936Z,99854.95
2018-04-11T02:42:16.485Z,99866.41
2018-04-11T02:44:44.115Z,99857.91
2018-04-11T02:47:11.644Z,99871.52
2018-04-11T02:49:39.176Z,99859.21
2018-04-11T02:52:06.999Z,99854.91
2018-04-11T02:54:34.557Z,99866.81
2018-04-11T02:57:02.129Z,99870.20
2018-04-11T02:59:29.673Z,99871.92
2018-04-11T03:01:57.221Z,99875.27
2018-04-11T03:04:24.757Z,99879.03
2018-04-11T03:06:52.316Z,99873.97
2018-04-11T03:09:19.898Z,99875.20
2018-04-11T03:11:47.471Z,99887.09
2018-04-11T03:14:15.043Z,99897.31
2018-04-11T03:16:42.612Z,99899.81
2018-04-11T03:19:10.157Z,99901.89
2018-04-11T03:21:37.713Z,99907.81
2018-04-11T03:24:05.292Z,99902.70
2018-04-11T03:26:32.846Z,99890.86
2018-04-11T03:29:00.410Z,99881.91
2018-04-11T03:31:27.977Z,99884.91
2018-04-11T03:33:55.523Z,99881.09
2018-04-11T03:36:23.072Z,99881.52
2018-04-11T03:38:50.625Z,99872.50
2018-04-11T03:41:18.184Z,99877.24
2018-04-11T03:43:45.851Z,99890.05
2018-04-11T03:46:13.409Z,99886.30
2018-04-11T03:48:41.068Z,99877.31
2018-04-11T03:51:08.599Z,99869.70
2018-04-11T03:53:36.185Z,99875.64
2018-04-11T03:56:03.747Z,99880.70
2018-04-11T03:58:31.306Z,99884.20
2018-04-11T04:00:58.873Z,99884.06
2018-04-11T04:03:26.419Z,99884.95
2018-04-11T04:05:53.981Z,99894.72
2018-04-11T04:08:21.563Z,99910.16
2018-04-11T04:10:49.102Z,99918.70
2018-04-11T04:13:16.660Z,99914.04
2018-04-11T04:15:56.016Z,99908.61
2018-04-11T04:18:35.549Z,99908.59
2018-04-11T04:21:03.122Z,99916.31
2018-04-11T04:23:30.677Z,99915.89
2018-04-11T04:25:58.256Z,99913.33
2018-04-11T04:28:25.820Z,99918.82
2018-04-11T04:30:53.361Z,99915.81
2018-04-11T04:33:20.917Z,99926.03
2018-04-11T04:35:48.463Z,99935.37
2018-04-11T04:38:16.038Z,99934.91
2018-04-11T04:40:43.600Z,99934.84
2018-04-11T04:43:11.152Z,99941.13
2018-04-11T04:45:38.709Z,99947.11
2018-04-11T04:48:06.272Z,99942.05
2018-04-11T04:50:33.905Z,99938.59
2018-04-11T04:53:01.492Z,99935.55
2018-04-11T04:55:29.049Z,99938.08
2018-04-11T04:57:56.613Z,99936.28
2018-04-11T05:00:24.193Z,99935.77
2018-04-11T05:02:51.731Z,99942.05
2018-04-11T05:05:19.287Z,99946.67
2018-04-11T05:07:46.831Z,99942.08
2018-04-11T05:10:14.377Z,99953.47
2018-04-11T05:12:41.924Z,99953.47
2018-04-11T05:15:09.495Z,99960.27
2018-04-11T05:17:37.117Z,99957.70
2018-04-11T05:20:04.682Z,99945.78
2018-04-11T05:22:32.239Z,99945.73
2018-04-11T05:24:59.809Z,99958.12
2018-04-11T05:27:27.357Z,99961.06
2018-04-11T05:29:54.920Z,99966.10
2018-04-11T05:32:22.529Z,99960.63
2018-04-11T05:34:50.077Z,99968.27
2018-04-11T05:37:17.610Z,99971.16
2018-04-11T05:39:45.196Z,99971.61
2018-04-11T05:42:12.725Z,99963.52
2018-04-11T05:44:40.285Z,99969.80
2018-04-11T05:47:07.900Z,99964.69
2018-04-11T05:49:35.458Z,99968.86
2018-04-11T05:52:03.029Z,99970.50
2018-04-11T05:54:30.579Z,99969.56
2018-04-11T05:56:58.139Z,99965.23
2018-04-11T06:01:52.558Z,99968.64
2018-04-11T06:04:20.147Z,99969.91
2018-04-11T06:06:47.742Z,99973.22
2018-04-11T06:09:15.317Z,99962.98
2018-04-11T06:11:42.882Z,99963.80
2018-04-11T06:14:10.446Z,99967.91
2018-04-11T06:16:38.023Z,99969.63
2018-04-11T06:19:05.587Z,99971.27
2018-04-11T06:21:33.142Z,99975.11
2018-04-11T06:24:00.776Z,99980.61
2018-04-11T06:26:28.345Z,99970.77
2018-04-11T06:28:55.894Z,99971.60
2018-04-11T06:31:23.438Z,99975.51
2018-04-11T06:33:50.985Z,99985.59
2018-04-11T06:36:18.532Z,99998.72
2018-04-11T06:38:46.160Z,100000.34
2018-04-11T06:41:13.705Z,99989.15
2018-04-11T06:43:41.254Z,99985.41
2018-04-11T06:46:08.873Z,99991.14
2018-04-11T06:48:36.416Z,100001.88
2018-04-11T06:51:03.965Z,100001.68
2018-04-11T06:53:31.541Z,100000.29
2018-04-11T06:55:59.131Z,100001.00
2018-04-11T06:58:26.701Z,100004.63
2018-04-11T07:00:54.291Z,100008.09
2018-04-11T07:03:21.879Z,100008.31
2018-04-11T07:05:49.509Z,99996.77
2018-04-11T07:08:17.067Z,100003.89
2018-04-11T07:10:44.632Z,100005.98
2018-04-11T07:13:12.194Z,100001.92
2018-04-11T07:15:40.070Z,99991.56
2018-04-11T07:18:07.670Z,99996.56
2018-04-11T07:20:35.242Z,100002.80
2018-04-11T07:23:02.893Z,100013.69
2018-04-11T07:25:30.450Z,100020.08
2018-04-11T07:27:58.032Z,100006.64
2018-04-11T07:30:25.783Z,100023.16
2018-04-11T07:32:53.377Z,100032.66
2018-04-11T07:35:20.949Z,100028.94
2018-04-11T07:37:48.527Z,100038.45
2018-04-11T07:40:16.132Z,100030.53
2018-04-11T07:42:43.700Z,100035.25
2018-04-11T07:45:11.278Z,100028.33
2018-04-11T07:47:38.825Z,100035.03
2018-04-11T07:50:06.395Z,100040.33
2018-04-11T07:52:33.948Z,100024.91
2018-04-11T07:55:01.502Z,100014.83
2018-04-11T07:57:29.039Z,100007.76
2018-04-11T07:59:56.671Z,100019.31
2018-04-11T08:02:24.226Z,100014.52
2018-04-11T08:04:51.840Z,100014.93
2018-04-11T08:07:19.405Z,100012.70
2018-04-11T08:09:46.968Z,100018.50
2018-04-11T08:12:14.563Z,100016.77
2018-04-11T08:14:42.133Z,100018.30
2018-04-11T08:17:09.714Z,100020.28
2018-04-11T08:19:37.273Z,100008.58
2018-04-11T08:22:04.839Z,100003.41
2018-04-11T08:24:32.410Z,100012.45
2018-04-11T08:26:59.967Z,100016.81
2018-04-11T08:29:27.538Z,100026.06
2018-04-11T08:31:55.112Z,100025.11
2018-04-11T08:34:22.669Z,100024.70
2018-04-11T08:36:50.239Z,100013.61
2018-04-11T08:39:17.801Z,100020.91
2018-04-11T08:41:45.373Z,100021.69
2018-04-11T08:44:12.921Z,100028.17
2018-04-11T08:46:40.526Z,100015.94
2018-04-11T08:49:08.076Z,100012.55
2018-04-11T08:51:35.642Z,100005.75
2018-04-11T08:54:03.216Z,100009.27
2018-04-11T08:56:30.788Z,100009.86
2018-04-11T08:58:58.356Z,100003.88
2018-04-11T09:01:25.913Z,100020.06
2018-04-11T09:03:53.469Z,99998.30
2018-04-11T09:06:21.027Z,100010.73
2018-04-11T09:08:48.596Z,100009.69
2018-04-11T09:11:16.171Z,100009.72
2018-04-11T09:13:43.875Z,100007.34
2018-04-11T09:16:11.437Z,100003.76
2018-04-11T09:18:39.009Z,100013.18
2018-04-11T09:21:06.591Z,100003.94
2018-04-11T09:23:34.144Z,100017.88
2018-04-11T09:26:01.707Z,99995.56
2018-04-11T09:28:29.316Z,100009.41
2018-04-11T09:30:56.892Z,100010.39
2018-04-11T09:33:24.456Z,100007.70
2018-04-11T09:35:52.033Z,100027.95
2018-04-11T09:38:19.617Z,100024.25
2018-04-11T09:40:47.196Z,100010.43
2018-04-11T09:43:14.742Z,99998.84
2018-04-11T09:45:42.357Z,99997.16
2018-04-11T09:48:09.965Z,99996.66
2018-04-11T09:50:37.527Z,99987.62
2018-04-11T09:53:05.082Z,99993.98
2018-04-11T09:55:32.655Z,100000.72
2018-04-11T09:58:00.228Z,99997.64
2018-04-11T10:00:27.849Z,100001.07
2018-04-11T10:03:00.983Z,100000.39
2018-04-11T10:05:28.547Z,100001.45
2018-04-11T10:07:56.101Z,99997.50
2018-04-11T10:10:23.654Z,99990.68
2018-04-11T10:12:51.214Z,99985.15
2018-04-11T10:15:18.776Z,99993.21
2018-04-11T10:17:47.264Z,99995.13
2018-04-11T10:20:14.823Z,100002.97
2018-04-11T10:22:42.401Z,100001.38
2018-04-11T10:25:09.962Z,100005.78
2018-04-11T10:27:37.547Z,100006.09
2018-04-11T10:30:05.108Z,100005.72
2018-04-11T10:32:32.700Z,100017.39
2018-04-11T10:35:00.235Z,100013.46
2018-04-11T10:37:27.824Z,100007.42
2018-04-11T10:39:55.442Z,100015.98
2018-04-11T10:42:23.015Z,100025.12
2018-04-11T10:44:50.581Z,100003.84
2018-04-11T10:47:18.226Z,100000.89
2018-04-11T10:49:45.821Z,100005.41
2018-04-11T10:52:13.392Z,100008.25
2018-04-11T10:54:40.940Z,100005.72
2018-04-11T10:57:08.519Z,100010.91
2018-04-11T10:59:36.144Z,100018.77
2018-04-11T11:02:03.709Z,100024.50
2018-04-11T11:04:31.266Z,100025.77
2018-04-11T11:06:58.856Z,100022.63
2018-04-11T11:09:26.455Z,100022.59
2018-04-11T11:11:54.067Z,100022.27
2018-04-11T11:14:21.701Z,100020.77
2018-04-11T11:16:49.278Z,100024.86
2018-04-11T11:19:16.829Z,100015.45
2018-04-11T11:21:44.421Z,100014.41
2018-04-11T11:24:11.989Z,100017.24
2018-04-11T11:26:39.665Z,100012.15
2018-04-11T11:29:08.177Z,100010.38
2018-04-11T11:31:35.756Z,100012.49
2018-04-11T11:34:03.335Z,100020.75
2018-04-11T11:36:30.894Z,100012.47
2018-04-11T11:38:58.455Z,100009.56
2018-04-11T11:41:30.928Z,100010.03
2018-04-11T11:43:58.615Z,100011.08
2018-04-11T11:46:26.228Z,100004.06
2018-04-11T11:48:54.766Z,99996.89
2018-04-11T11:51:22.335Z,99995.44
2018-04-11T11:53:49.879Z,99996.03
2018-04-11T11:56:17.425Z,99986.58
2018-04-11T11:58:44.985Z,99997.27
2018-04-11T12:01:12.556Z,99984.08
2018-04-11T12:03:40.132Z,99979.77
2018-04-11T12:06:07.688Z,99974.71
2018-04-11T12:08:35.258Z,99980.39
2018-04-11T12:11:02.815Z,99975.05
2018-04-11T12:13:30.367Z,99963.73
2018-04-11T12:15:57.912Z,99963.78
2018-04-11T12:18:25.481Z,99965.70
2018-04-11T12:20:53.056Z,99964.20
2018-04-11T12:23:20.616Z,99967.90
2018-04-11T12:25:48.199Z,99967.44
2018-04-11T12:28:15.777Z,99960.58
2018-04-11T12:30:43.398Z,99958.59
2018-04-11T12:33:10.967Z,99962.06
2018-04-11T12:35:38.562Z,99963.23
2018-04-11T12:38:06.138Z,99963.96
2018-04-11T12:40:33.723Z,99960.81
2018-04-11T12:43:01.282Z,99964.63
2018-04-11T12:45:28.848Z,99955.52
2018-04-11T12:47:56.427Z,99959.48
2018-04-11T12:50:23.960Z,99952.95
2018-04-11T12:52:51.528Z,99943.90
2018-04-11T12:55:19.095Z,99959.56
2018-04-11T12:57:46.645Z,99941.25
2018-04-11T13:00:14.198Z,99952.17
2018-04-11T13:02:41.755Z,99944.80
2018-04-11T13:05:09.297Z,99938.59
2018-04-11T13:07:36.841Z,99941.94
2018-04-11T13:10:04.400Z,99938.09
2018-04-11T13:12:31.950Z,99938.52
2018-04-11T13:14:59.497Z,99936.41
2018-04-11T13:17:27.051Z,99928.43
2018-04-11T13:19:54.603Z,99921.14
2018-04-11T13:22:22.136Z,99917.73
2018-04-11T13:24:49.695Z,99913.69
2018-04-11T13:27:17.238Z,99902.83
2018-04-11T13:29:44.796Z,99906.75
2018-04-11T13:32:12.339Z,99904.33
2018-04-11T13:34:39.895Z,99906.95
2018-04-11T13:37:07.444Z,99900.08
2018-04-11T13:39:35.008Z,99895.98
2018-04-11T13:42:02.605Z,99896.16
2018-04-11T13:44:30.156Z,99885.45
2018-04-11T13:46:57.701Z,99884.55
2018-04-11T13:49:25.269Z,99875.00
2018-04-11T13:51:52.814Z,99881.42
2018-04-11T13:54:20.363Z,99887.42
2018-04-11T13:56:47.933Z,99873.98
2018-04-11T13:59:15.513Z,99869.92
2018-04-11T14:01:43.087Z,99865.80
2018-04-11T14:04:10.649Z,99863.63
2018-04-11T14:06:38.220Z,99856.15
2018-04-11T14:09:06.628Z,99858.22
2018-04-11T14:11:34.167Z,99852.32
2018-04-11T14:14:01.736Z,99861.25
2018-04-11T14:16:29.319Z,99861.66
2018-04-11T14:18:56.906Z,99866.58
2018-04-11T14:21:24.450Z,99854.77
2018-04-11T14:23:52.033Z,99861.05
2018-04-11T14:26:19.588Z,99862.47
2018-04-11T14:28:47.147Z,99860.70
2018-04-11T14:31:14.706Z,99856.45
2018-04-11T14:33:42.292Z,99856.67
2018-04-11T14:36:09.883Z,99863.63
2018-04-11T14:38:37.471Z,99863.63
2018-04-11T14:41:05.039Z,99863.97
2018-04-11T14:43:32.609Z,99866.48
2018-04-11T14:46:00.193Z,99858.73
2018-04-11T14:48:27.754Z,99860.13
2018-04-11T14:50:55.298Z,99858.06
2018-04-11T14:53:22.912Z,99857.30
2018-04-11T14:55:51.053Z,99862.89
2018-04-11T14:58:18.628Z,99859.27
2018-04-11T15:00:46.177Z,99854.64
2018-04-11T15:03:13.744Z,99859.02
2018-04-11T15:05:41.613Z,99858.05
2018-04-11T15:08:09.173Z,99855.17
2018-04-11T15:10:36.717Z,99853.81
2018-04-11T15:13:04.272Z,99851.25
2018-04-11T15:15:31.841Z,99866.47
2018-04-11T15:17:59.393Z,99870.19
2018-04-11T15:20:27.276Z,99870.61
2018-04-11T15:22:54.865Z,99891.84
2018-04-11T15:25:22.438Z,99886.37
2018-04-11T15:27:49.987Z,99870.72
2018-04-11T15:30:17.587Z,99885.40
2018-04-11T15:32:45.171Z,99873.67
2018-04-11T15:35:12.721Z,99884.17
2018-04-11T15:37:40.319Z,99884.81
2018-04-11T15:40:07.893Z,99883.05
2018-04-11T15:42:35.458Z,99872.66
2018-04-11T15:45:03.017Z,99891.15
2018-04-11T15:47:30.551Z,99882.77
2018-04-11T15:49:58.124Z,99882.58
2018-04-11T15:52:25.698Z,99887.45
2018-04-11T15:54:53.264Z,99885.09
2018-04-11T15:57:20.812Z,99886.90
2018-04-11T15:59:48.374Z,99882.03
2018-04-11T16:02:15.928Z,99881.73
2018-04-11T16:04:43.462Z,99880.64
2018-04-11T16:07:11.018Z,99875.23
2018-04-11T16:09:38.585Z,99878.98
2018-04-11T16:12:06.135Z,99872.91
2018-04-11T16:14:33.665Z,99880.21
2018-04-11T16:17:01.216Z,99870.83
2018-04-11T16:19:28.775Z,99877.58
2018-04-11T16:21:56.363Z,99874.64
2018-04-11T16:24:23.949Z,99872.17
2018-04-11T16:26:51.527Z,99880.63
2018-04-11T16:29:19.083Z,99879.45
2018-04-11T16:31:46.652Z,99883.22
2018-04-11T16:34:14.234Z,99881.78
2018-04-11T16:36:41.785Z,99881.32
2018-04-11T16:39:09.352Z,99881.32
2018-04-11T16:41:37.003Z,99884.06
2018-04-11T16:44:04.578Z,99880.67
2018-04-11T16:46:32.171Z,99891.69
2018-04-11T16:48:59.729Z,99890.88
2018-04-11T16:51:27.279Z,99893.08
2018-04-11T16:53:54.837Z,99899.58
2018-04-11T16:56:22.461Z,99896.84
2018-04-11T16:58:50.264Z,99898.91
2018-04-11T17:01:17.802Z,99900.09
2018-04-11T17:03:45.370Z,99905.75
2018-04-11T17:06:12.921Z,99913.94
2018-04-11T17:08:40.511Z,99900.31
2018-04-11T17:11:08.126Z,99901.80
2018-04-11T17:13:35.689Z,99899.72
2018-04-11T17:16:03.256Z,99900.63
2018-04-11T17:18:30.826Z,99900.70
2018-04-11T17:21:10.060Z,99893.05
2018-04-11T17:23:49.352Z,99905.59
2018-04-11T17:26:28.617Z,99908.34
2018-04-11T17:29:07.964Z,99896.22
2018-04-11T17:31:35.532Z,99896.28
2018-04-11T17:34:03.207Z,99904.95
2018-04-11T17:36:30.780Z,99905.59
2018-04-11T17:38:58.345Z,99904.98
2018-04-11T17:41:25.923Z,99896.67
2018-04-11T17:43:53.486Z,99906.16
2018-04-11T17:46:21.092Z,99902.08
2018-04-11T17:48:48.708Z,99899.96
2018-04-11T17:51:16.307Z,99899.70
2018-04-11T17:53:43.871Z,99904.69
2018-04-11T17:56:11.486Z,99900.05
2018-04-11T17:58:39.017Z,99899.30
2018-04-11T18:01:06.590Z,99903.09
2018-04-11T18:03:34.151Z,99908.40
2018-04-11T18:06:01.724Z,99927.33
2018-04-11T18:08:29.309Z,99918.09
2018-04-11T18:10:56.886Z,99939.50
2018-04-11T18:13:24.453Z,99946.14
2018-04-11T18:15:52.004Z,99951.69
2018-04-11T18:18:19.583Z,99937.07
2018-04-11T18:20:47.448Z,99942.78
2018-04-11T18:23:15.415Z,99962.98
2018-04-11T18:25:43.218Z,99959.62
2018-04-11T18:28:11.414Z,99962.50
2018-04-11T18:30:39.256Z,99971.47
2018-04-11T18:33:07.134Z,99981.52
2018-04-11T18:35:35.014Z,99998.92
2018-04-11T18:50:57.781Z,100121.13
2018-04-11T18:53:25.795Z,100107.19
2018-04-11T18:55:53.513Z,100094.48
2018-04-11T18:58:21.300Z,100106.89
2018-04-11T19:00:49.135Z,100095.63
2018-04-11T19:03:17.041Z,100083.59
2018-04-11T19:05:44.797Z,100069.62
2018-04-11T19:08:12.434Z,100045.23
2018-04-11T19:10:40.089Z,100032.09
2018-04-11T19:13:07.788Z,100057.22
2018-04-11T19:15:36.167Z,100034.59
2018-04-11T19:18:04.846Z,100019.73
2018-04-11T19:20:32.602Z,100044.88
2018-04-11T19:23:01.299Z,100034.83
2018-04-11T19:25:29.683Z,100021.61
2018-04-11T19:27:57.856Z,100015.97
2018-04-11T19:30:25.985Z,99995.91
2018-04-11T19:32:53.739Z,99998.81
2018-04-11T19:35:21.700Z,100004.67
2018-04-11T19:37:49.782Z,100013.16
2018-04-11T19:40:17.601Z,100018.86
2018-04-11T19:42:45.486Z,100023.72
2018-04-11T19:45:13.675Z,100013.16
2018-04-11T19:47:42.264Z,100017.54
2018-04-11T19:50:10.348Z,100019.74
2018-04-11T19:52:38.174Z,100007.71
2018-04-11T19:55:06.726Z,100013.94
2018-04-11T19:57:34.457Z,100011.48
2018-04-11T20:00:02.224Z,100012.49
2018-04-11T20:02:30.870Z,100019.48
2018-04-11T20:04:58.454Z,100018.38
2018-04-11T20:07:26.053Z,100029.81
2018-04-11T20:09:53.638Z,100046.84
2018-04-11T20:12:21.313Z,100043.26
2018-04-11T20:14:48.889Z,100031.41
2018-04-11T20:17:16.484Z,100010.52
2018-04-11T20:19:44.036Z,99984.60
2018-04-11T20:22:11.650Z,99980.47
2018-04-11T20:24:39.211Z,100008.16
2018-04-11T20:27:06.775Z,100008.22
2018-04-11T20:29:34.374Z,100016.95
2018-04-11T20:32:01.985Z,100044.06
2018-04-11T20:34:29.561Z,100048.70
2018-04-11T20:36:57.132Z,100069.27
2018-04-11T20:39:24.705Z,100066.27
2018-04-11T20:41:52.312Z,100066.37
2018-04-11T20:44:19.874Z,100064.83
2018-04-11T20:46:47.459Z,100044.52
2018-04-11T20:49:15.236Z,100068.25
2018-04-11T20:51:42.822Z,100062.98
2018-04-11T20:54:10.409Z,100022.33
2018-04-11T20:56:37.977Z,99988.30
2018-04-11T20:59:05.543Z,99977.72
2018-04-11T21:01:33.139Z,99971.04
2018-04-11T21:04:00.722Z,99964.13
2018-04-11T21:06:28.276Z,99974.34
2018-04-11T21:08:55.862Z,99941.10
2018-04-11T21:11:23.427Z,99947.67
2018-04-11T21:13:51.022Z,99954.51
2018-04-11T21:16:18.645Z,99944.67
2018-04-11T21:18:46.213Z,99950.70
2018-04-11T21:21:13.766Z,99933.63
2018-04-11T21:23:41.328Z,99936.94
2018-04-11T21:26:08.912Z,99932.99
2018-04-11T21:28:36.516Z,99947.02
2018-04-11T21:31:04.096Z,99964.05
2018-04-11T21:33:31.658Z,99982.23
2018-04-11T21:35:59.254Z,99964.55
2018-04-11T21:38:26.818Z,99946.34
2018-04-11T21:40:54.378Z,99929.78
2018-04-11T21:43:21.926Z,99900.20
2018-04-11T21:45:49.499Z,99879.68
2018-04-11T21:48:17.070Z,99876.98
2018-04-11T21:50:44.639Z,99888.73
2018-04-11T21:53:12.216Z,99873.55
2018-04-11T21:55:39.786Z,99863.30
2018-04-11T21:58:07.344Z,99874.30
2018-04-11T22:00:34.899Z,99918.09
2018-04-11T22:03:02.489Z,99987.52
2018-04-11T22:05:30.213Z,99977.70
2018-04-11T22:07:57.784Z,99959.16
2018-04-11T22:10:25.342Z,99973.08
2018-04-11T22:12:52.912Z,99982.98
2018-04-11T22:15:20.467Z,99987.20
2018-04-11T22:17:48.040Z,99998.70
2018-04-11T22:20:15.578Z,100011.50
2018-04-11T22:22:43.140Z,100004.77
2018-04-11T22:25:10.743Z,99999.39
2018-04-11T22:27:38.366Z,100011.27
2018-04-11T22:30:05.941Z,100003.09
2018-04-11T22:32:33.502Z,99982.09
2018-04-11T22:35:01.084Z,99975.77
2018-04-11T22:37:28.659Z,99981.42
2018-04-11T22:39:56.219Z,99984.55
2018-04-11T22:42:23.849Z,99978.75
2018-04-11T22:44:51.379Z,99960.55
2018-04-11T22:47:18.996Z,99978.93
2018-04-11T22:49:46.555Z,99974.66
2018-04-11T22:52:14.139Z,99989.16
2018-04-11T22:54:42.017Z,99966.97
2018-04-11T22:57:09.613Z,99931.27
2018-04-11T22:59:37.264Z,99932.44
2018-04-11T23:02:04.850Z,99979.09
2018-04-11T23:04:32.436Z,99992.02
2018-04-11T23:06:59.993Z,99940.66
2018-04-11T23:09:27.581Z,99924.19
2018-04-11T23:11:55.208Z,99929.75
2018-04-11T23:14:22.799Z,99908.55
2018-04-11T23:16:50.392Z,99896.30
2018-04-11T23:19:17.952Z,99885.20
2018-04-11T23:21:45.516Z,99877.17
2018-04-11T23:24:13.072Z,99877.22
2018-04-11T23:26:40.672Z,99883.26
2018-04-11T23:29:08.248Z,99880.77
2018-04-11T23:31:35.825Z,99878.75
2018-04-11T23:34:03.386Z,99878.98
2018-04-11T23:39:12.722Z,99868.91
2018-04-11T23:41:40.281Z,99865.59
2018-04-11T23:44:07.848Z,99873.69
2018-04-11T23:46:35.423Z,99874.92
2018-04-11T23:49:03.015Z,99868.95
2018-04-11T23:51:30.598Z,99876.98
2018-04-11T23:53:58.163Z,99871.39
2018-04-11T23:56:25.817Z,99864.50
2018-04-11T23:58:53.396Z,99866.60
